ENAL Informações do Aeroporto

Informações da Pista
Pista 07 Comprimento 7592 ft Largura 148 ft
Elevação 34 ft Limite 490 ft Heading 65
Pista 25 Comprimento 7592 ft Largura 148 ft
Elevação 48 ft Limite 755 ft Heading 245
Frequências do Aeroporto
Tipo ATIS Nome ATIS Frequência 128.65 MHZ
Tipo TWR Nome TWR Frequência 119.85 MHZ
Navaids do Aeroporto
Tipo NDB Nome Vigra Frequência 355 KHZ
Tipo TACAN Nome Vigra Frequência 112400 KHZ
Tipo VOR-DME Nome Vigra Frequência 115800 KHZ
Informações meteorológicas do aeroporto e NOTAM
ADDS - METARS form results

(0558 UTC 25 September 2020)
Data provider http://aviationweather.gov/metar/data/
 
METAR text: ENAL 250550Z 33006KT 290V010 9999 BKN031 09/04 Q1004
Conditions at: ENAL (ALESUND/VIGRA , NO) observed 0550 UTC 25 September 2020
Temperature: 9.0°C (48°F)
Dewpoint: 4.0°C (39°F) [RH = 71%]
Pressure (altimeter): 29.65 inches Hg (1004.0 mb)
Winds: from the NNW (330 degrees) at 7 MPH (6 knots; 3.1 m/s)
Visibility: 6 or more miles (10+ km)
Ceiling: 3100 feet AGL
Clouds: broken clouds at 3100 feet AGL
Weather: no significant weather observed at this time

METAR text: ENAL 250520Z 33007KT 290V010 9999 -RA SCT030 BKN046 09/04 Q1003
Conditions at: ENAL (ALESUND/VIGRA , NO) observed 0520 UTC 25 September 2020
Temperature: 9.0°C (48°F)
Dewpoint: 4.0°C (39°F) [RH = 71%]
Pressure (altimeter): 29.62 inches Hg (1003.0 mb)
Winds: from the NNW (330 degrees) at 8 MPH (7 knots; 3.6 m/s)
Visibility: 6 or more miles (10+ km)
Ceiling: 4600 feet AGL
Clouds: scattered clouds at 3000 feet AGL
broken clouds at 4600 feet AGL
Weather: -RA  (light rain)

Forecast for: ENAL (ALESUND/VIGRA , NO)
Text: TAF ENAL 250500Z 2506/2515 33015KT 9999 FEW020 BKN030
Forecast period: 0600 to 0800 UTC 25 September 2020
Forecast type: FROM: standard forecast or significant change
Winds: from the NNW (330 degrees) at 17 MPH (15 knots; 7.7 m/s)
Visibility: 6 or more miles (10+ km)
Ceiling: 3000 feet AGL
Clouds: few clouds at 2000 feet AGL
broken clouds at 3000 feet AGL
Weather: no significant weather forecast for this period
Text: PROB30
Forecast period: 0600 to 0800 UTC 25 September 2020
Forecast type: TEMPORARY: The following changes expected for less than half the time period
Visibility: missing
Ceiling: 1200 feet AGL
Clouds: broken clouds at 1200 feet AGL
Weather: SHRA  (rain showers)
Text: TEMPO 2506/2508 SHRA BKN012CB
Forecast period: 0800 to 1500 UTC 25 September 2020
Forecast type: BECOMING: Conditions expected to become as follows by 1000 UTC 25 September 2020
Winds: from the NE (40 degrees) at 12 MPH (10 knots; 5.1 m/s)
Visibility: 6 or more miles (10+ km)
Ceiling: 3000 feet AGL
Clouds: few clouds at 2000 feet AGL
broken clouds at 3000 feet AGL
Weather: no significant weather forecast for this period